Time;durP1;ratioP1;P1;durP2;ratioP2;P2;SDS_P1;SDS_P2;PMS_P1;PMS_P2;Temp;Humidity;BMP_temperature;BMP_pressure;BME280_temperature;BME280_humidity;BME280_pressure;Samples;Min_cycle;Max_cycle;Signal;HPM_P1;HPM_P2
2021/10/29 00:00:42;;;;;;;8.50;5.93;;;;;;;20.34;51.52;101019.69;5077992;28;20033;-71
2021/10/29 00:03:07;;;;;;;8.07;5.03;;;;;;;20.36;51.40;101022.97;5081913;28;20052;-71
2021/10/29 00:05:35;;;;;;;8.88;5.40;;;;;;;20.37;51.41;101023.78;5080319;28;20068;-71
2021/10/29 00:08:01;;;;;;;8.27;5.40;;;;;;;20.34;51.62;101024.97;5080318;28;20044;-71
2021/10/29 00:10:27;;;;;;;8.07;5.78;;;;;;;20.35;51.59;101023.16;5080395;28;20378;-71
2021/10/29 00:12:53;;;;;;;8.35;5.82;;;;;;;20.38;51.42;101018.31;5079956;28;20393;-70
2021/10/29 00:15:19;;;;;;;8.50;5.55;;;;;;;20.36;51.44;101016.84;5082071;28;20040;-71
2021/10/29 00:17:44;;;;;;;8.65;5.75;;;;;;;20.29;51.50;101014.13;5079228;28;20044;-71
2021/10/29 00:20:11;;;;;;;9.05;5.82;;;;;;;20.28;51.76;101011.63;5076064;28;20780;-71
2021/10/29 00:22:37;;;;;;;8.55;5.30;;;;;;;20.27;51.54;101017.91;5078288;28;20051;-71
2021/10/29 00:25:04;;;;;;;7.85;5.32;;;;;;;20.27;51.64;101012.63;5079549;28;20045;-71
2021/10/29 00:27:29;;;;;;;8.38;5.65;;;;;;;20.30;51.53;101013.13;5080589;28;20178;-71
2021/10/29 00:29:55;;;;;;;9.05;6.00;;;;;;;20.37;51.27;101013.22;5077831;28;20477;-71
2021/10/29 00:32:22;;;;;;;8.10;5.25;;;;;;;20.23;51.64;101015.63;5079039;28;20056;-71
2021/10/29 00:34:48;;;;;;;7.80;5.68;;;;;;;20.26;51.50;101006.50;5082228;28;20040;-71
2021/10/29 00:37:14;;;;;;;9.38;5.72;;;;;;;20.23;51.44;101005.06;5084262;28;20047;-71
2021/10/29 00:39:39;;;;;;;10.05;5.97;;;;;;;20.27;51.41;101002.88;5070943;28;20040;-71
2021/10/29 00:42:05;;;;;;;9.05;6.35;;;;;;;20.30;51.39;101012.28;5083222;28;20048;-71
2021/10/29 00:44:31;;;;;;;9.50;6.05;;;;;;;20.23;51.55;101005.06;5083918;28;20115;-71
2021/10/29 00:46:57;;;;;;;8.75;5.68;;;;;;;20.17;51.87;101005.78;5082612;28;20452;-71
2021/10/29 00:49:22;;;;;;;10.18;6.18;;;;;;;20.22;51.50;101013.16;5079673;28;20048;-71
2021/10/29 00:51:49;;;;;;;7.75;5.75;;;;;;;20.17;51.56;101005.78;5064178;28;20444;-71
2021/10/29 00:54:16;;;;;;;7.57;5.60;;;;;;;20.16;51.59;101006.78;5084175;28;20565;-71
2021/10/29 00:56:43;;;;;;;8.45;5.80;;;;;;;20.22;51.48;101008.69;5080237;28;20044;-71
2021/10/29 00:59:09;;;;;;;8.70;5.90;;;;;;;20.19;51.43;101003.75;5082144;28;20316;-71
2021/10/29 01:01:34;;;;;;;9.45;5.82;;;;;;;20.17;51.44;101012.88;5064671;28;20032;-71
2021/10/29 01:04:00;;;;;;;8.57;5.45;;;;;;;20.18;51.32;101010.06;5083597;28;20588;-71
2021/10/29 01:06:25;;;;;;;10.02;5.85;;;;;;;20.16;51.38;101006.78;5064975;28;20047;-71
2021/10/29 01:08:51;;;;;;;8.80;6.07;;;;;;;20.21;51.41;101017.63;5083106;28;20043;-71
2021/10/29 01:11:19;;;;;;;9.82;6.25;;;;;;;20.07;51.79;101017.56;5068852;28;20047;-71
2021/10/29 01:13:49;;;;;;;10.23;6.43;;;;;;;20.09;51.70;101010.28;5082629;28;20040;-71
2021/10/29 01:16:16;;;;;;;;;;;;;;;20.10;51.43;101004.81;5081419;28;20052;-71
2021/10/29 01:18:42;;;;;;;9.82;5.70;;;;;;;20.09;51.69;101012.94;5081060;28;19970;-72
2021/10/29 01:21:08;;;;;;;8.52;5.93;;;;;;;20.05;51.79;101017.75;5082901;28;20127;-71
2021/10/29 01:23:35;;;;;;;12.10;5.90;;;;;;;20.02;51.71;101014.66;5082948;28;20040;-71
2021/10/29 01:26:04;;;;;;;10.05;5.93;;;;;;;20.09;51.55;101008.47;5081848;28;20040;-71
2021/10/29 01:28:30;;;;;;;11.73;6.57;;;;;;;20.07;51.65;101004.34;5083624;28;20470;-71
2021/10/29 01:30:55;;;;;;;10.95;6.40;;;;;;;20.14;51.35;101000.84;5081931;28;20036;-71
2021/10/29 01:33:21;;;;;;;9.63;5.90;;;;;;;20.09;51.48;100997.06;5082736;28;20038;-71
2021/10/29 01:35:47;;;;;;;9.40;5.82;;;;;;;20.04;51.63;100999.44;5085490;28;20077;-71
2021/10/29 01:38:13;;;;;;;9.13;6.00;;;;;;;20.06;52.00;100998.25;5083648;28;20109;-71
2021/10/29 01:40:39;;;;;;;9.13;5.82;;;;;;;20.01;51.72;100999.78;5086359;28;20489;-71
2021/10/29 01:43:05;;;;;;;9.43;5.63;;;;;;;20.09;51.57;100984.66;5084887;28;20110;-71
2021/10/29 01:45:32;;;;;;;9.85;7.00;;;;;;;20.07;51.46;100991.13;5080307;28;20048;-71
2021/10/29 01:47:58;;;;;;;9.32;5.80;;;;;;;19.99;51.79;100980.63;5086607;28;20040;-71
2021/10/29 01:50:23;;;;;;;8.68;5.35;;;;;;;20.04;51.55;100980.91;5083371;28;20055;-71
2021/10/29 01:52:49;;;;;;;10.10;5.95;;;;;;;19.98;51.71;100971.88;5086649;28;20051;-71
2021/10/29 01:55:15;;;;;;;9.15;6.35;;;;;;;20.06;51.55;100973.63;5080710;28;20401;-71
2021/10/29 01:57:41;;;;;;;8.18;5.45;;;;;;;19.92;51.57;100957.53;5074717;28;20044;-72
2021/10/29 02:00:07;;;;;;;9.93;6.43;;;;;;;20.04;51.51;100973.00;5065934;28;20090;-71
2021/10/29 02:02:39;;;;;;;11.75;6.28;;;;;;;20.00;51.65;100963.78;5087756;28;20113;-71
2021/10/29 02:05:07;;;;;;;10.18;5.60;;;;;;;19.98;51.57;100963.97;5088948;28;20032;-71
2021/10/29 02:07:32;;;;;;;11.55;6.68;;;;;;;20.01;51.58;100966.25;5082206;28;20039;-71
2021/10/29 02:09:58;;;;;;;7.72;5.50;;;;;;;19.99;51.51;100965.59;5078453;28;20402;-71
2021/10/29 02:12:23;;;;;;;8.43;5.82;;;;;;;19.97;51.64;100961.50;5081268;28;20040;-71
2021/10/29 02:14:49;;;;;;;9.10;6.00;;;;;;;19.95;51.55;100966.97;5083557;28;20048;-71
2021/10/29 02:17:14;;;;;;;12.18;6.55;;;;;;;19.94;51.63;100964.50;5079643;28;20552;-71
2021/10/29 02:19:40;;;;;;;10.23;6.30;;;;;;;19.94;51.43;100965.31;5082195;28;20039;-71
2021/10/29 02:22:06;;;;;;;9.13;5.97;;;;;;;19.95;51.58;100960.84;5077028;28;20154;-72
2021/10/29 02:24:31;;;;;;;7.70;5.70;;;;;;;20.00;51.49;100961.97;5081686;28;20040;-71
2021/10/29 02:26:57;;;;;;;9.45;6.07;;;;;;;19.94;51.60;100954.75;5080396;28;21767;-71
2021/10/29 02:29:22;;;;;;;9.32;6.38;;;;;;;19.91;51.66;100949.78;5081912;28;20405;-71
2021/10/29 02:31:48;;;;;;;9.48;5.43;;;;;;;19.97;51.50;100943.81;5078282;28;20033;-71
2021/10/29 02:34:14;;;;;;;10.27;6.45;;;;;;;20.04;51.29;100941.28;5067830;28;20048;-71
2021/10/29 02:36:39;;;;;;;9.50;6.22;;;;;;;19.94;51.51;100933.59;5081952;28;20044;-72
2021/10/29 02:39:05;;;;;;;10.05;6.32;;;;;;;19.91;51.66;100933.94;5082276;28;20054;-71
2021/10/29 02:41:31;;;;;;;8.98;5.68;;;;;;;19.94;51.56;100935.44;5065940;28;20520;-72
2021/10/29 02:43:56;;;;;;;11.35;6.57;;;;;;;19.88;51.60;100936.94;5077823;28;20043;-72
2021/10/29 02:46:22;;;;;;;8.27;6.03;;;;;;;19.93;51.56;100945.16;5078500;28;20044;-71
2021/10/29 02:48:47;;;;;;;10.55;6.50;;;;;;;19.87;51.60;100938.75;5084223;28;20048;-71
2021/10/29 02:51:13;;;;;;;9.77;5.95;;;;;;;19.90;51.48;100935.75;5080139;28;20528;-71
2021/10/29 02:53:39;;;;;;;10.05;6.30;;;;;;;19.85;51.71;100935.47;5079857;28;20048;-71
2021/10/29 02:56:07;;;;;;;9.98;6.22;;;;;;;19.83;51.94;100934.00;5079258;28;20044;-71
2021/10/29 02:58:34;;;;;;;10.45;6.70;;;;;;;19.87;51.63;100925.53;5080918;28;20096;-71
2021/10/29 03:01:00;;;;;;;10.45;5.93;;;;;;;19.86;51.79;100921.25;5082007;28;20047;-71
2021/10/29 03:03:26;;;;;;;9.30;5.97;;;;;;;19.83;51.69;100918.16;5079898;28;20075;-71
2021/10/29 03:05:51;;;;;;;8.98;6.10;;;;;;;19.82;51.69;100922.63;5080044;28;20067;-71
2021/10/29 03:08:17;;;;;;;9.13;6.13;;;;;;;19.85;51.53;100919.63;5081876;28;20105;-71
2021/10/29 03:10:43;;;;;;;9.85;6.18;;;;;;;19.83;51.59;100916.34;5079649;28;20040;-71
2021/10/29 03:13:09;;;;;;;9.02;5.93;;;;;;;19.82;51.57;100919.16;5083968;28;20032;-71
2021/10/29 03:15:35;;;;;;;8.77;5.75;;;;;;;19.79;51.75;100922.16;5078887;28;20543;-71
2021/10/29 03:18:00;;;;;;;12.38;6.57;;;;;;;19.81;51.65;100917.50;5084989;28;20055;-71
2021/10/29 03:20:26;;;;;;;10.15;6.20;;;;;;;19.79;51.74;100920.34;5087513;28;20088;-71
2021/10/29 03:22:52;;;;;;;8.52;5.53;;;;;;;19.77;51.68;100913.59;5086038;28;20075;-71
2021/10/29 03:25:17;;;;;;;8.70;5.68;;;;;;;19.74;51.76;100914.72;5085618;28;20052;-71
2021/10/29 03:27:43;;;;;;;13.13;6.40;;;;;;;19.79;51.60;100911.59;5078547;28;20049;-71
2021/10/29 03:30:10;;;;;;;10.73;6.25;;;;;;;19.78;51.57;100915.22;5086571;28;20043;-71
2021/10/29 03:32:35;;;;;;;10.82;6.43;;;;;;;19.78;51.68;100912.59;5081546;28;20115;-71
2021/10/29 03:35:01;;;;;;;7.82;5.47;;;;;;;19.73;51.84;100904.34;5080613;28;20127;-71
2021/10/29 03:46:02;;;;;;;10.32;6.00;;;;;;;19.70;51.75;100892.31;5086684;28;20043;-71
2021/10/29 03:53:55;;;;;;;10.68;6.60;;;;;;;19.81;51.61;100891.09;5081588;28;20490;-71
2021/10/29 03:56:23;;;;;;;8.98;6.05;;;;;;;19.76;51.60;100888.16;5077370;28;20512;-71
2021/10/29 03:58:51;;;;;;;8.32;5.40;;;;;;;19.84;51.24;100882.78;5082224;28;20044;-71
2021/10/29 04:01:17;;;;;;;10.10;6.25;;;;;;;19.95;51.12;100887.66;5079202;28;20048;-71
2021/10/29 04:03:44;;;;;;;7.65;5.68;;;;;;;20.03;50.85;100892.03;5085787;28;20031;-71
2021/10/29 04:06:10;;;;;;;9.27;6.20;;;;;;;20.17;50.78;100888.63;5065481;28;20422;-71
2021/10/29 04:08:36;;;;;;;8.95;6.43;;;;;;;20.29;50.31;100878.41;5079287;28;20070;-71
2021/10/29 04:11:02;;;;;;;9.10;5.60;;;;;;;20.80;49.48;100874.03;5081132;28;20052;-71
2021/10/29 04:13:33;;;;;;;9.70;6.05;;;;;;;21.49;47.63;100874.44;5080174;28;20032;-71
2021/10/29 04:16:00;;;;;;;8.45;5.75;;;;;;;21.91;47.13;100867.47;5079188;28;20493;-71
2021/10/29 04:18:27;;;;;;;8.50;5.60;;;;;;;22.18;46.27;100871.97;5082767;28;20040;-71
2021/10/29 04:20:53;;;;;;;8.38;5.75;;;;;;;22.37;46.08;100872.28;5078593;28;20043;-71
2021/10/29 04:23:18;;;;;;;10.30;5.63;;;;;;;22.56;45.73;100876.88;5083993;28;20036;-71
2021/10/29 04:25:44;;;;;;;8.13;5.28;;;;;;;22.56;45.44;100872.38;5086990;28;20065;-71
2021/10/29 04:28:12;;;;;;;7.18;5.00;;;;;;;22.63;45.69;100867.13;5079108;28;20047;-71
2021/10/29 04:30:44;;;;;;;8.73;5.43;;;;;;;22.58;45.56;100865.03;5086126;28;20136;-71
2021/10/29 04:33:11;;;;;;;9.13;5.93;;;;;;;22.59;45.54;100861.38;5073523;28;20550;-71
2021/10/29 04:35:39;;;;;;;8.50;5.45;;;;;;;22.64;45.68;100859.97;5075991;28;20127;-71
2021/10/29 04:38:06;;;;;;;8.32;5.63;;;;;;;22.47;46.00;100851.53;5087150;28;20036;-71
2021/10/29 04:40:31;;;;;;;7.13;5.10;;;;;;;22.46;46.00;100850.72;5073791;28;20040;-71
2021/10/29 04:42:57;;;;;;;9.82;5.80;;;;;;;22.35;46.23;100839.81;5085633;28;20044;-71
2021/10/29 04:45:23;;;;;;;7.55;5.32;;;;;;;22.25;46.45;100848.13;5085420;28;20044;-71
2021/10/29 04:47:49;;;;;;;8.48;4.95;;;;;;;22.15;46.97;100840.53;5075536;28;20036;-71
2021/10/29 04:50:14;;;;;;;10.13;5.55;;;;;;;22.01;47.32;100825.50;5075529;28;20399;-71
2021/10/29 04:52:40;;;;;;;8.00;5.10;;;;;;;21.92;47.58;100837.28;5080445;28;20043;-71
2021/10/29 04:55:06;;;;;;;7.80;5.30;;;;;;;21.59;48.28;100832.53;5082769;28;20049;-71
2021/10/29 04:57:31;;;;;;;6.57;5.03;;;;;;;21.24;49.27;100834.25;5079984;28;20046;-71
2021/10/29 04:59:58;;;;;;;7.93;5.47;;;;;;;21.05;49.91;100830.38;5083959;28;20097;-71
2021/10/29 05:02:24;;;;;;;7.85;4.97;;;;;;;21.06;49.75;100826.72;5081551;28;20083;-71
2021/10/29 05:04:50;;;;;;;8.25;5.55;;;;;;;20.91;50.06;100830.41;5072830;28;20040;-71
2021/10/29 05:07:15;;;;;;;7.22;4.68;;;;;;;20.82;50.47;100834.97;5081640;28;20086;-71
2021/10/29 05:09:41;;;;;;;7.18;5.25;;;;;;;20.78;50.46;100831.88;5067947;28;20036;-71
2021/10/29 05:12:07;;;;;;;8.90;4.78;;;;;;;20.76;50.46;100831.25;5083503;28;20055;-71
2021/10/29 05:14:32;;;;;;;8.00;5.30;;;;;;;20.73;50.51;100830.81;5082041;28;20164;-72
2021/10/29 05:16:58;;;;;;;9.70;5.38;;;;;;;20.74;50.45;100830.63;5083104;28;20063;-71
2021/10/29 05:19:23;;;;;;;8.65;5.68;;;;;;;20.69;50.58;100832.19;5084560;28;20398;-71
2021/10/29 05:21:49;;;;;;;7.72;4.82;;;;;;;20.62;50.87;100826.78;5085649;28;20040;-71
2021/10/29 05:24:16;;;;;;;7.15;5.40;;;;;;;20.66;50.58;100828.09;5085102;28;20051;-71
2021/10/29 05:26:43;;;;;;;9.75;5.68;;;;;;;20.66;50.72;100819.34;5087638;28;20114;-71
2021/10/29 05:29:09;;;;;;;7.30;4.70;;;;;;;20.74;50.43;100816.56;5086134;28;20048;-71
2021/10/29 05:31:35;;;;;;;7.38;4.95;;;;;;;20.86;50.11;100819.56;5087953;28;20363;-71
2021/10/29 05:34:01;;;;;;;7.85;5.20;;;;;;;20.99;49.65;100819.69;5078703;28;20036;-71
2021/10/29 05:36:26;;;;;;;10.20;5.32;;;;;;;21.40;48.80;100822.59;5086574;28;20043;-71
2021/10/29 05:38:52;;;;;;;7.65;5.00;;;;;;;21.71;47.94;100816.91;5083381;28;20040;-71
2021/10/29 05:41:17;;;;;;;7.55;4.88;;;;;;;21.94;47.52;100816.69;5083421;28;20050;-71
2021/10/29 05:43:43;;;;;;;7.65;5.43;;;;;;;22.08;47.22;100817.63;5088919;28;20044;-71
2021/10/29 05:46:09;;;;;;;7.68;5.28;;;;;;;22.21;46.55;100820.34;5089474;28;20036;-71
2021/10/29 05:48:37;;;;;;;8.10;4.85;;;;;;;22.33;46.41;100825.94;5086260;28;20039;-71
2021/10/29 05:51:09;;;;;;;7.35;5.35;;;;;;;22.35;46.28;100818.59;5086232;28;20629;-71
2021/10/29 05:54:35;;;;;;;7.47;4.88;;;;;;;22.29;46.41;100823.69;5083097;28;20040;-71
2021/10/29 05:56:22;;;;;;;6.15;4.75;;;;;;;22.13;46.71;100810.72;5068995;28;20059;-71
2021/10/29 05:58:48;;;;;;;7.28;5.22;;;;;;;22.03;46.97;100824.28;5088549;28;20048;-71
2021/10/29 06:01:14;;;;;;;6.82;5.00;;;;;;;21.73;47.78;100820.22;5088699;28;20050;-71
2021/10/29 06:03:40;;;;;;;7.90;5.30;;;;;;;21.48;48.88;100819.78;5086246;28;20044;-71
2021/10/29 06:06:05;;;;;;;6.80;4.80;;;;;;;21.25;49.35;100817.34;5088657;28;20044;-71
2021/10/29 06:08:31;;;;;;;8.23;5.13;;;;;;;21.21;49.54;100816.06;5084753;28;20125;-71
2021/10/29 06:10:56;;;;;;;7.43;5.10;;;;;;;21.12;49.39;100806.59;5077783;28;20106;-71
2021/10/29 06:13:22;;;;;;;7.38;4.93;;;;;;;21.07;49.94;100804.50;5084253;28;20048;-71
2021/10/29 06:15:48;;;;;;;8.00;5.03;;;;;;;20.91;50.26;100804.75;5084204;28;20044;-71
2021/10/29 06:18:22;;;;;;;7.82;4.85;;;;;;;20.85;50.34;100796.75;5082022;28;20409;-71
2021/10/29 06:20:49;;;;;;;8.02;5.32;;;;;;;20.89;50.31;100806.78;5082627;28;20039;-71
2021/10/29 06:23:14;;;;;;;7.50;4.85;;;;;;;20.85;50.39;100797.56;5080470;28;20141;-71
2021/10/29 06:25:46;;;;;;;6.50;4.90;;;;;;;20.82;50.28;100795.28;5080728;28;20048;-71
2021/10/29 06:28:28;;;;;;;7.05;4.78;;;;;;;20.79;50.26;100799.13;5080968;28;20048;-71
2021/10/29 06:30:55;;;;;;;6.75;4.50;;;;;;;20.80;50.35;100802.59;5085360;28;20035;-71
2021/10/29 06:33:23;;;;;;;6.80;5.13;;;;;;;20.85;50.03;100794.91;5088197;28;20044;-71
2021/10/29 06:35:49;;;;;;;7.45;4.95;;;;;;;20.85;50.14;100792.28;5081510;28;20033;-71
2021/10/29 06:38:16;;;;;;;7.97;5.45;;;;;;;21.05;49.69;100795.13;5085815;28;20032;-71
2021/10/29 06:40:45;;;;;;;6.53;4.93;;;;;;;21.42;48.70;100800.19;5081851;28;20456;-71
2021/10/29 07:42:28;;;;;;;7.38;5.60;;;;;;;21.91;47.66;100815.25;5080401;28;20028;-70
2021/10/29 07:44:53;;;;;;;7.38;4.72;;;;;;;21.95;47.41;100807.72;5083010;28;20404;-71
2021/10/29 07:47:20;;;;;;;6.90;4.53;;;;;;;21.65;47.89;100807.09;5081706;28;20031;-70
2021/10/29 07:49:46;;;;;;;8.73;5.40;;;;;;;21.40;48.67;100804.06;5065741;28;20036;-71
2021/10/29 07:52:12;;;;;;;7.47;5.00;;;;;;;21.29;49.01;100802.72;5077730;28;20036;-70
2021/10/29 07:54:44;;;;;;;8.05;4.50;;;;;;;21.11;49.73;100800.47;5063351;28;20080;-71
2021/10/29 07:57:09;;;;;;;7.30;4.85;;;;;;;21.06;49.95;100799.41;5079353;28;20136;-70
2021/10/29 07:59:35;;;;;;;7.70;4.72;;;;;;;21.00;49.87;100794.84;5082846;28;20111;-70
2021/10/29 08:02:00;;;;;;;5.47;4.40;;;;;;;21.07;50.04;100804.50;5081024;28;20044;-70
2021/10/29 08:04:26;;;;;;;8.15;5.30;;;;;;;21.29;49.51;100804.56;5082264;28;20746;-70
2021/10/29 08:06:53;;;;;;;6.40;4.47;;;;;;;21.32;49.17;100812.09;5080831;28;20106;-70
2021/10/29 08:09:19;;;;;;;7.85;4.95;;;;;;;21.28;49.29;100806.38;5081604;28;20068;-70
2021/10/29 08:11:45;;;;;;;7.25;4.88;;;;;;;21.26;49.41;100804.94;5079207;28;20043;-70
2021/10/29 08:14:10;;;;;;;6.93;4.60;;;;;;;21.23;49.62;100802.63;5086961;28;20040;-70
2021/10/29 08:16:36;;;;;;;7.20;4.60;;;;;;;21.21;49.49;100802.00;5068772;28;20048;-70
2021/10/29 08:19:03;;;;;;;6.57;4.95;;;;;;;21.23;49.48;100808.75;5068975;28;20043;-70
2021/10/29 08:21:29;;;;;;;8.18;4.75;;;;;;;21.18;49.48;100799.72;5086810;28;20101;-70
2021/10/29 08:23:54;;;;;;;6.18;4.30;;;;;;;21.17;49.42;100809.50;5084036;28;20040;-70
2021/10/29 08:26:20;;;;;;;8.75;4.82;;;;;;;21.18;49.52;100803.19;5086576;28;20063;-70
2021/10/29 08:28:46;;;;;;;7.45;5.03;;;;;;;21.13;49.53;100805.59;5079714;28;20036;-70
2021/10/29 08:31:12;;;;;;;6.90;4.47;;;;;;;21.17;49.64;100795.44;5082450;28;20032;-70
2021/10/29 08:33:38;;;;;;;8.73;4.97;;;;;;;21.12;49.84;100796.81;5079403;28;20028;-70
2021/10/29 08:36:05;;;;;;;6.45;4.80;;;;;;;21.06;49.81;100792.28;5080312;28;20398;-70
2021/10/29 08:38:30;;;;;;;6.45;4.75;;;;;;;21.07;49.87;100793.94;5082686;28;20039;-71
2021/10/29 08:40:56;;;;;;;7.40;5.28;;;;;;;21.12;49.83;100790.72;5084294;28;20406;-71
2021/10/29 08:43:22;;;;;;;8.45;4.78;;;;;;;21.05;49.76;100769.47;5081046;28;20655;-71
2021/10/29 08:45:48;;;;;;;7.82;4.38;;;;;;;21.07;49.87;100777.22;5080044;28;20036;-71
2021/10/29 08:48:14;;;;;;;6.05;4.60;;;;;;;21.08;50.02;100784.97;5078278;28;20831;-71
2021/10/29 08:50:40;;;;;;;6.28;4.60;;;;;;;21.02;50.02;100775.16;5079154;28;20049;-71
2021/10/29 08:53:06;;;;;;;7.72;4.90;;;;;;;21.05;49.84;100789.84;5062440;28;20055;-71
2021/10/29 08:55:34;;;;;;;7.65;4.60;;;;;;;21.04;49.92;100790.84;5062649;28;20382;-71
2021/10/29 08:58:04;;;;;;;7.00;4.55;;;;;;;21.05;49.92;100784.53;5081501;28;20410;-71
2021/10/29 09:00:38;;;;;;;7.40;4.85;;;;;;;21.05;49.65;100779.25;5081263;28;20059;-72
2021/10/29 09:03:19;;;;;;;7.20;4.28;;;;;;;21.00;50.02;100778.97;5089329;28;20067;-71
2021/10/29 09:06:43;;;;;;;6.30;4.45;;;;;;;21.00;49.94;100771.03;5084457;28;20050;-71
2021/10/29 09:11:43;;;;;;;9.80;4.82;;;;;;;21.00;49.83;100763.09;5084879;28;20047;-71
2021/10/29 09:33:56;;;;;;;8.57;5.40;;;;;;;20.92;50.14;100752.63;5084777;28;20028;-72
2021/10/29 09:36:28;;;;;;;7.18;4.45;;;;;;;20.93;50.02;100749.78;5081988;28;20032;-72
2021/10/29 09:38:57;;;;;;;6.35;4.53;;;;;;;20.89;49.99;100759.13;5081309;28;20031;-72
2021/10/29 09:41:44;;;;;;;7.70;4.90;;;;;;;20.90;50.03;100744.88;5081210;28;20100;-71
2021/10/29 09:44:17;;;;;;;7.55;5.03;;;;;;;20.92;49.77;100742.03;5064006;28;20985;-71
2021/10/29 09:46:55;;;;;;;6.97;4.80;;;;;;;20.80;50.27;100736.41;5081447;28;20043;-71
2021/10/29 09:49:29;;;;;;;7.15;4.82;;;;;;;20.84;50.19;100740.34;5082816;28;20039;-71
2021/10/29 09:55:46;;;;;;;6.93;4.57;;;;;;;20.88;49.92;100728.38;5079442;28;20392;-72
2021/10/29 09:57:34;;;;;;;7.22;4.93;;;;;;;20.84;50.16;100734.25;5068625;28;20108;-72
2021/10/29 10:00:04;;;;;;;5.22;4.35;;;;;;;20.78;50.16;100725.22;5082622;28;20044;-72
2021/10/29 10:02:42;;;;;;;6.18;4.30;;;;;;;20.81;50.03;100730.94;5068385;28;20404;-71
2021/10/29 10:05:09;;;;;;;7.25;4.25;;;;;;;20.79;50.06;100730.31;5085277;28;20036;-72
2021/10/29 10:07:42;;;;;;;6.70;4.72;;;;;;;20.81;50.07;100727.47;5065183;28;20142;-72
2021/10/29 10:10:11;;;;;;;7.70;5.13;;;;;;;20.75;50.27;100725.59;5075890;28;20512;-72
2021/10/29 10:12:40;;;;;;;7.70;4.75;;;;;;;20.72;50.17;100718.03;5077810;28;20077;-72
2021/10/29 10:15:07;;;;;;;6.75;4.47;;;;;;;20.70;50.22;100712.09;5077543;28;20032;-72
2021/10/29 10:17:33;;;;;;;6.35;4.55;;;;;;;20.70;50.21;100718.22;5079794;28;20757;-72
2021/10/29 10:20:00;;;;;;;6.72;4.55;;;;;;;20.70;50.42;100720.03;5079180;28;20031;-72
2021/10/29 10:22:28;;;;;;;7.45;4.88;;;;;;;20.73;50.13;100725.78;5077210;28;20485;-71
2021/10/29 10:25:02;;;;;;;8.00;4.50;;;;;;;20.74;50.28;100714.19;5080823;28;20415;-69
2021/10/29 10:47:03;;;;;;;7.53;5.13;;;;;;;20.72;50.04;100686.28;5083072;28;20668;-71
2021/10/29 10:49:36;;;;;;;7.10;4.82;;;;;;;20.64;50.35;100679.25;5066543;28;20055;-71
2021/10/29 10:52:27;;;;;;;8.07;5.30;;;;;;;20.66;50.19;100671.97;5083566;28;20040;-71
2021/10/29 10:55:01;;;;;;;7.75;5.10;;;;;;;20.72;50.19;100673.88;5085239;28;20040;-71
2021/10/29 10:57:37;;;;;;;5.50;4.32;;;;;;;20.75;49.91;100673.47;5082189;28;20406;-71
2021/10/29 11:03:10;;;;;;;7.63;4.95;;;;;;;20.75;50.03;100651.50;5077616;28;20028;-71
2021/10/29 11:05:46;;;;;;;8.35;4.75;;;;;;;20.67;50.27;100654.28;5078316;28;20036;-71
2021/10/29 11:11:19;;;;;;;7.50;4.63;;;;;;;20.70;50.07;100652.06;5081592;28;20176;-71
2021/10/29 11:14:00;;;;;;;7.72;5.18;;;;;;;20.68;50.03;100637.41;5082287;28;20619;-72
2021/10/29 11:16:35;;;;;;;6.55;4.57;;;;;;;20.69;50.18;100642.50;5083546;28;20036;-72
2021/10/29 11:19:05;;;;;;;6.68;4.55;;;;;;;20.68;50.33;100627.63;5082482;28;20036;-72
2021/10/29 11:21:35;;;;;;;7.65;4.72;;;;;;;20.69;50.37;100625.81;5083742;28;20044;-72
2021/10/29 11:24:08;;;;;;;6.88;4.90;;;;;;;20.64;50.25;100626.34;5080150;28;20470;-72
2021/10/29 11:26:46;;;;;;;11.32;5.53;;;;;;;20.66;50.34;100623.53;5082390;28;20043;-72
2021/10/29 11:29:12;;;;;;;7.93;4.45;;;;;;;20.67;50.33;100609.31;5083662;28;20051;-72
2021/10/29 11:31:42;;;;;;;7.05;5.13;;;;;;;20.65;50.12;100608.69;5065086;28;20436;-72
2021/10/29 11:34:13;;;;;;;5.90;4.50;;;;;;;20.69;50.12;100608.09;5083590;28;20043;-73
2021/10/29 11:36:41;;;;;;;6.93;4.82;;;;;;;20.67;50.20;100607.47;5085582;28;20081;-72
2021/10/29 11:39:11;;;;;;;8.63;4.53;;;;;;;20.62;50.29;100601.09;5076044;28;20483;-72
2021/10/29 11:41:41;;;;;;;7.00;4.93;;;;;;;20.60;50.20;100601.28;5065865;28;20040;-72
2021/10/29 11:44:12;;;;;;;7.53;5.13;;;;;;;20.59;50.47;100598.84;5077230;28;20020;-72
2021/10/29 11:46:39;;;;;;;8.43;5.25;;;;;;;20.68;50.19;100603.81;5079563;28;20171;-72
2021/10/29 11:49:09;;;;;;;8.68;4.95;;;;;;;20.70;50.11;100603.63;5078179;28;20394;-72
2021/10/29 11:51:37;;;;;;;7.30;5.15;;;;;;;20.65;50.21;100611.31;5078635;28;20044;-73
2021/10/29 12:09:40;;;;;;;9.73;5.00;;;;;;;20.65;50.31;100588.31;5063240;28;20055;-72
2021/10/29 12:12:10;;;;;;;6.68;4.97;;;;;;;20.62;50.43;100591.31;5080521;28;20047;-72
2021/10/29 12:14:37;;;;;;;6.53;4.90;;;;;;;20.59;50.70;100583.78;5079515;28;20048;-72
2021/10/29 12:20:03;;;;;;;7.22;5.07;;;;;;;20.59;50.54;100557.31;5080238;28;20032;-71
2021/10/29 12:22:37;;;;;;;6.75;4.63;;;;;;;20.60;50.48;100552.84;5086527;28;20043;-71
2021/10/29 12:25:14;;;;;;;5.85;4.25;;;;;;;20.60;50.49;100544.91;5082050;28;20045;-71
2021/10/29 12:27:48;;;;;;;8.73;5.38;;;;;;;20.59;50.45;100552.03;5079050;28;20055;-72
2021/10/29 12:53:23;;;;;;;7.25;4.78;;;;;;;20.44;50.44;100483.34;5078970;28;20039;-72
2021/10/29 12:58:58;;;;;;;8.52;4.75;;;;;;;20.59;50.47;100503.59;5079140;28;20474;-72
2021/10/29 13:01:26;;;;;;;;;;;;;;;20.61;50.50;100497.09;5079021;28;20054;-72
2021/10/29 13:04:02;;;;;;;6.68;4.75;;;;;;;20.57;50.49;100485.28;5077047;28;20043;-71
2021/10/29 13:06:32;;;;;;;6.57;5.10;;;;;;;20.51;50.63;100488.69;5074279;28;20565;-72
2021/10/29 13:08:59;;;;;;;6.82;4.82;;;;;;;20.54;50.52;100493.59;5076511;28;20474;-71
2021/10/29 13:11:25;;;;;;;8.05;5.18;;;;;;;20.54;50.50;100479.56;5082171;28;20044;-72
2021/10/29 13:13:57;;;;;;;6.68;4.75;;;;;;;20.58;50.29;100478.16;5075387;28;20047;-71
2021/10/29 13:16:24;;;;;;;7.35;4.78;;;;;;;20.51;50.53;100473.66;5062657;28;20062;-72
2021/10/29 14:04:02;;;;;;;7.20;4.30;;;;;;;20.41;50.70;100430.00;5079135;28;20040;-72
2021/10/29 14:17:08;;;;;;;8.43;4.60;;;;;;;20.42;50.71;100450.97;5082018;28;20059;-71
2021/10/29 14:33:04;;;;;;;6.78;4.68;;;;;;;20.56;50.45;100451.09;5080848;28;20047;-72
2021/10/29 14:35:39;;;;;;;8.02;4.72;;;;;;;20.54;50.37;100451.28;5083288;28;20044;-71
2021/10/29 14:40:57;;;;;;;6.78;4.70;;;;;;;20.47;50.57;100424.78;5084027;28;20040;-69
2021/10/29 14:43:28;;;;;;;7.93;4.47;;;;;;;20.49;50.50;100414.00;5079632;28;20542;-69
2021/10/29 14:46:04;;;;;;;7.10;4.55;;;;;;;20.50;50.53;100416.47;5077169;28;20122;-67
2021/10/29 15:26:15;;;;;;;6.72;4.57;;;;;;;20.40;50.71;100431.81;5075613;28;20036;-69
2021/10/29 15:42:51;;;;;;;5.35;4.32;;;;;;;20.33;50.88;100454.75;5079723;28;20040;-69
2021/10/29 15:45:23;;;;;;;7.88;4.72;;;;;;;20.40;50.73;100460.09;5060502;28;20044;-69
2021/10/29 15:48:05;;;;;;;7.95;4.90;;;;;;;20.33;50.81;100451.28;5076697;28;20071;-70
2021/10/29 15:50:36;;;;;;;7.63;4.80;;;;;;;20.29;50.90;100460.59;5075886;28;20101;-69
2021/10/29 15:53:07;;;;;;;8.18;5.40;;;;;;;20.33;50.84;100456.59;5075179;28;20154;-69
2021/10/29 15:55:55;;;;;;;6.53;4.70;;;;;;;20.32;50.78;100454.97;5075562;28;20048;-70
2021/10/29 16:01:11;;;;;;;5.85;4.43;;;;;;;20.29;50.92;100457.94;5071258;28;20044;-70
2021/10/29 16:03:54;;;;;;;6.35;4.60;;;;;;;20.32;50.77;100458.41;5070421;28;20046;-70
2021/10/29 16:17:16;;;;;;;6.20;4.68;;;;;;;20.28;50.91;100461.63;5070011;28;20467;-69
2021/10/29 16:19:45;;;;;;;7.45;4.72;;;;;;;20.26;50.99;100458.34;5075146;28;20075;-70
2021/10/29 16:22:35;;;;;;;7.53;4.82;;;;;;;20.28;50.89;100449.22;5076975;28;20036;-70
2021/10/29 16:25:27;;;;;;;7.50;4.97;;;;;;;20.25;50.95;100440.84;5080733;28;20176;-70
2021/10/29 16:30:22;;;;;;;6.93;4.35;;;;;;;20.28;50.81;100445.75;5081209;28;20146;-70
2021/10/29 16:35:31;;;;;;;7.85;4.82;;;;;;;20.26;50.89;100448.59;5080902;28;20569;-69
2021/10/29 16:37:57;;;;;;;7.88;5.00;;;;;;;20.16;50.99;100445.47;5081585;28;20064;-69
2021/10/29 16:40:22;;;;;;;6.88;4.68;;;;;;;20.28;50.70;100446.56;5078888;28;20063;-70